Time;durP1;ratioP1;P1;durP2;ratioP2;P2;SDS_P1;SDS_P2;PMS_P1;PMS_P2;Temp;Humidity;BMP_temperature;BMP_pressure;BME280_temperature;BME280_humidity;BME280_pressure;Samples;Min_cycle;Max_cycle;Signal;HPM_P1;HPM_P2
2021/08/02 00:00:38;;;;;;;;;;;;;;;20.30;62.84;99155.72;4403589;32;35420;-75
2021/08/02 00:03:18;;;;;;;;;;;;;;;20.24;63.39;99154.75;4417703;32;33427;-75
2021/08/02 00:05:48;;;;;;;;;;;;;;;20.08;63.33;99165.28;4431381;32;34291;-75
2021/08/02 00:08:23;;;;;;;;;;;;;;;20.29;62.83;99159.50;4407848;32;34164;-75
2021/08/02 00:10:50;;;;;;;;;;;;;;;20.36;nan;99165.66;4405979;32;33752;-75
2021/08/02 00:13:27;;;;;;;;;;;;;;;20.07;63.13;99177.09;4417617;32;32985;-75
2021/08/02 00:16:05;;;;;;;;;;;;;;;20.22;62.97;99169.50;4420664;32;35125;-75
2021/08/02 00:18:33;;;;;;;;;;;;;;;20.27;63.17;99167.81;4418044;32;35382;-75
2021/08/02 00:21:04;;;;;;;;;;;;;;;20.34;62.82;99175.84;4421221;32;34475;-75
2021/08/02 00:23:39;;;;;;;;;;;;;;;20.38;62.47;99167.06;4417761;32;33379;-75
2021/08/02 00:26:06;;;;;;;;;;;;;;;20.52;62.21;99167.78;4404299;32;34256;-75
2021/08/02 00:28:34;;;;;;;;;;;;;;;20.35;62.15;99175.63;4416470;32;36098;-75
2021/08/02 00:31:02;;;;;;;;;;;;;;;20.32;62.13;99176.09;4417988;32;34806;-75
2021/08/02 00:33:29;;;;;;;;;;;;;;;20.20;62.39;99166.22;4405288;32;33805;-75
2021/08/02 00:35:59;;;;;;;;;;;;;;;20.04;62.96;99159.50;4405993;32;34885;-75
2021/08/02 00:38:33;;;;;;;;;;;;;;;20.04;62.78;99175.69;4405696;32;35271;-76
2021/08/02 00:41:01;;;;;;;;;;;;;;;20.22;62.56;99166.81;4403404;32;35048;-75
2021/08/02 00:44:07;;;;;;;;;;;;;;;20.33;62.95;99179.59;4417547;32;33024;-75
2021/08/02 00:46:39;;;;;;;;;;;;;;;20.39;62.48;99179.53;4387010;32;34224;-75
2021/08/02 00:49:07;;;;;;;;;;;;;;;20.42;62.36;99184.50;4382825;32;35251;-75
2021/08/02 00:51:45;;;;;;;;;;;;;;;20.46;62.47;99176.78;4385020;32;35251;-75
2021/08/02 00:54:14;;;;;;;;;;;;;;;20.45;62.65;99183.25;4384943;32;33268;-75
2021/08/02 00:56:42;;;;;;;;;;;;;;;20.51;62.09;99172.38;4370658;32;34544;-75
2021/08/02 00:59:10;;;;;;;;;;;;;;;20.47;61.79;99181.94;4369823;32;34518;-74
2021/08/02 01:01:38;;;;;;;;;;;;;;;20.13;62.58;99187.03;4369160;32;33572;-75
2021/08/02 01:04:06;;;;;;;;;;;;;;;20.27;62.16;99175.91;4385835;32;32172;-75
2021/08/02 01:06:34;;;;;;;;;;;;;;;20.35;61.53;99172.94;4380875;32;34009;-75
2021/08/02 01:09:09;;;;;;;;;;;;;;;20.28;61.44;99168.63;4380638;32;35338;-74
2021/08/02 01:11:37;;;;;;;;;;;;;;;19.96;62.98;99183.19;4358093;32;33943;-75
2021/08/02 01:14:08;;;;;;;;;;;;;;;19.88;63.03;99183.44;4382650;32;33467;-75
2021/08/02 01:16:36;;;;;;;;;;;;;;;19.86;63.09;99178.28;4386083;32;33228;-75
2021/08/02 01:19:08;;;;;;;;;;;;;;;19.79;63.37;99182.88;4405592;32;36021;-75
2021/08/02 01:21:41;;;;;;;;;;;;;;;19.92;62.73;99184.66;4421054;32;34488;-74
2021/08/02 01:24:11;;;;;;;;;;;;;;;19.91;63.09;99180.31;4417727;32;33959;-75
2021/08/02 01:26:42;;;;;;;;;;;;;;;19.93;63.17;99186.31;4416152;32;34887;-75
2021/08/02 01:29:30;;;;;;;;;;;;;;;19.67;63.82;99191.88;4430930;32;36939;-75
2021/08/02 01:31:59;;;;;;;;;;;;;;;19.33;64.73;99187.69;4389431;32;35210;-74
2021/08/02 01:34:26;;;;;;;;;;;;;;;19.43;64.65;99168.38;4415672;32;33739;-75
2021/08/02 01:36:54;;;;;;;;;;;;;;;19.53;64.47;99180.34;4404007;32;34760;-75
2021/08/02 01:39:22;;;;;;;;;;;;;;;19.43;64.60;99179.97;4417338;32;34544;-74
2021/08/02 01:41:50;;;;;;;;;;;;;;;19.41;64.58;99176.66;4404819;32;35056;-74
2021/08/02 01:44:18;;;;;;;;;;;;;;;19.44;64.88;99180.81;4422318;32;34837;-74
2021/08/02 01:46:48;;;;;;;;;;;;;;;19.38;64.66;99184.34;4416193;32;33049;-75
2021/08/02 01:49:37;;;;;;;;;;;;;;;19.52;63.55;99197.56;4418219;32;35125;-75
2021/08/02 01:52:06;;;;;;;;;;;;;;;19.54;63.72;99208.16;4420069;32;34607;-75
2021/08/02 01:54:54;;;;;;;;;;;;;;;19.57;64.16;99210.41;4402488;32;33376;-75
2021/08/02 01:57:35;;;;;;;;;;;;;;;19.59;64.08;99219.12;4418756;32;35098;-75
2021/08/02 02:00:08;;;;;;;;;;;;;;;19.53;63.78;99220.81;4415994;32;35537;-75
2021/08/02 02:02:47;;;;;;;;;;;;;;;19.37;64.04;99231.25;4429389;32;34474;-75
2021/08/02 02:05:20;;;;;;;;;;;;;;;19.36;64.05;99230.41;4417140;32;33242;-74
2021/08/02 02:08:06;;;;;;;;;;;;;;;19.25;64.39;99239.19;4418918;32;33793;-75
2021/08/02 02:10:38;;;;;;;;;;;;;;;19.39;63.58;99238.09;4418599;32;36284;-74
2021/08/02 02:13:09;;;;;;;;;;;;;;;19.30;64.07;99242.09;4416428;32;34366;-74
2021/08/02 02:15:37;;;;;;;;;;;;;;;19.08;64.89;99250.62;4402090;32;33771;-75
2021/08/02 02:18:05;;;;;;;;;;;;;;;19.12;64.61;99247.28;4414875;32;33029;-74
2021/08/02 02:20:33;;;;;;;;;;;;;;;19.12;64.62;99249.16;4417325;32;35584;-74
2021/08/02 02:23:01;;;;;;;;;;;;;;;19.20;64.60;99254.34;4419440;32;34040;-74
2021/08/02 02:25:30;;;;;;;;;;;;;;;18.98;64.88;99248.34;4418478;32;33579;-75
2021/08/02 02:27:58;;;;;;;;;;;;;;;19.04;64.87;99244.81;4410678;32;33020;-75
2021/08/02 02:30:28;;;;;;;;;;;;;;;19.01;64.96;99256.03;4431996;32;35501;-75
2021/08/02 02:32:56;;;;;;;;;;;;;;;19.11;64.41;99259.13;4421790;32;34637;-74
2021/08/02 02:35:25;;;;;;;;;;;;;;;19.23;64.60;99270.94;4418907;32;33003;-76
2021/08/02 02:37:53;;;;;;;;;;;;;;;19.23;64.88;99267.41;4405703;32;33301;-75
2021/08/02 02:40:21;;;;;;;;;;;;;;;19.10;64.38;99270.09;4419983;32;35534;-74
2021/08/02 02:42:49;;;;;;;;;;;;;;;19.03;64.89;99275.53;4418382;32;34521;-75
2021/08/02 02:45:17;;;;;;;;;;;;;;;18.96;65.44;99282.78;4420332;32;33551;-75
2021/08/02 02:47:45;;;;;;;;;;;;;;;19.15;65.15;99278.41;4418174;32;35467;-74
2021/08/02 02:50:13;;;;;;;;;;;;;;;19.11;64.80;99287.94;4418940;32;35213;-74
2021/08/02 02:52:41;;;;;;;;;;;;;;;18.85;65.58;99293.38;4432448;32;35667;-75
2021/08/02 02:55:09;;;;;;;;;;;;;;;19.03;65.34;99301.63;4418158;32;33126;-74
2021/08/02 02:57:38;;;;;;;;;;;;;;;18.99;65.49;99303.12;4418317;32;34024;-74
2021/08/02 03:00:07;;;;;;;;;;;;;;;18.78;66.07;99303.34;4418784;32;36118;-74
2021/08/02 03:02:35;;;;;;;;;;;;;;;18.85;65.75;99306.84;4417002;32;35535;-74
2021/08/02 03:05:04;;;;;;;;;;;;;;;18.89;65.53;99303.53;4403524;32;34378;-74
2021/08/02 03:07:34;;;;;;;;;;;;;;;18.83;66.29;99323.25;4417762;32;34889;-74
2021/08/02 03:10:02;;;;;;;;;;;;;;;18.72;66.57;99333.81;4418073;32;34163;-75
2021/08/02 03:12:34;;;;;;;;;;;;;;;18.85;66.13;99339.19;4416672;32;35650;-74
2021/08/02 03:15:03;;;;;;;;;;;;;;;18.73;66.73;99343.53;4410176;32;33389;-75
2021/08/02 03:17:31;;;;;;;;;;;;;;;18.60;66.92;99354.31;4419173;32;34161;-74
2021/08/02 03:19:59;;;;;;;;;;;;;;;18.64;66.99;99355.56;4418658;32;34774;-75
2021/08/02 03:22:35;;;;;;;;;;;;;;;18.92;66.39;99345.41;4433728;32;34257;-75
2021/08/02 03:25:04;;;;;;;;;;;;;;;19.20;65.23;99344.19;4406507;32;35047;-75
2021/08/02 03:27:50;;;;;;;;;;;;;;;19.21;65.17;99340.44;4414881;32;34728;-74
2021/08/02 03:30:18;;;;;;;;;;;;;;;19.01;65.69;99330.69;4404794;32;37060;-75
2021/08/02 03:32:46;;;;;;;;;;;;;;;19.23;65.06;99326.72;4431986;32;33972;-75
2021/08/02 03:35:14;;;;;;;;;;;;;;;19.39;64.89;99334.38;4416924;32;33569;-75
2021/08/02 03:37:42;;;;;;;;;;;;;;;19.41;64.99;99356.56;4431585;32;34418;-75
2021/08/02 03:40:13;;;;;;;;;;;;;;;19.56;64.53;99359.88;4403384;32;35492;-75
2021/08/02 03:42:41;;;;;;;;;;;;;;;19.34;65.20;99359.28;4405230;32;35868;-74
2021/08/02 03:45:09;;;;;;;;;;;;;;;19.34;64.93;99370.09;4417913;32;33502;-74
2021/08/02 03:47:38;;;;;;;;;;;;;;;19.04;65.84;99382.31;4420891;32;34248;-75
2021/08/02 03:50:06;;;;;;;;;;;;;;;19.08;65.77;99380.84;4404905;32;35474;-75
2021/08/02 03:52:33;;;;;;;;;;;;;;;19.23;65.27;99386.91;4407071;32;34779;-74
2021/08/02 03:55:02;;;;;;;;;;;;;;;18.87;66.27;99385.66;4418023;32;33889;-75
2021/08/02 03:57:30;;;;;;;;;;;;;;;19.05;66.02;99386.69;4433322;32;33506;-75
2021/08/02 03:59:57;;;;;;;;;;;;;;;18.99;66.16;99402.84;4418271;32;34279;-75
2021/08/02 04:02:25;;;;;;;;;;;;;;;19.31;65.12;99404.72;4431642;32;33985;-75
2021/08/02 04:04:53;;;;;;;;;;;;;;;18.89;66.32;99405.13;4418578;32;33292;-74
2021/08/02 04:07:21;;;;;;;;;;;;;;;19.02;66.41;99411.38;4431996;32;33645;-75
2021/08/02 04:09:48;;;;;;;;;;;;;;;18.99;66.55;99414.47;4433253;32;35703;-75
2021/08/02 04:12:16;;;;;;;;;;;;;;;18.85;67.18;99414.66;4420678;32;35203;-75
2021/08/02 04:14:44;;;;;;;;;;;;;;;19.08;66.48;99412.41;4415893;32;33227;-74
2021/08/02 04:17:11;;;;;;;;;;;;;;;19.16;65.70;99415.72;4404554;32;34183;-75
2021/08/02 04:19:40;;;;;;;;;;;;;;;18.62;67.51;99425.00;4418627;32;35424;-75
2021/08/02 04:22:07;;;;;;;;;;;;;;;18.70;67.46;99424.81;4423134;32;34241;-75
2021/08/02 04:24:34;;;;;;;;;;;;;;;18.99;66.79;99433.31;4417419;32;34654;-74
2021/08/02 04:27:03;;;;;;;;;;;;;;;18.79;66.94;99440.56;4404221;32;34288;-75
2021/08/02 04:29:30;;;;;;;;;;;;;;;19.20;66.15;99443.13;4416554;32;35427;-76
2021/08/02 04:31:58;;;;;;;;;;;;;;;18.94;67.03;99451.16;4417007;32;34748;-74
2021/08/02 04:34:25;;;;;;;;;;;;;;;19.09;66.49;99459.91;4431907;32;33415;-74
2021/08/02 04:36:53;;;;;;;;;;;;;;;19.20;66.40;99457.47;4418428;32;34184;-74
2021/08/02 04:39:21;;;;;;;;;;;;;;;19.24;66.36;99458.69;4432380;32;35479;-74
2021/08/02 04:41:51;;;;;;;;;;;;;;;19.23;66.26;99462.44;4415156;32;35433;-75
2021/08/02 04:44:19;;;;;;;;;;;;;;;19.22;66.59;99454.53;4417097;32;33477;-76
2021/08/02 04:46:46;;;;;;;;;;;;;;;19.16;66.75;99449.94;4410106;32;32792;-74
2021/08/02 04:49:14;;;;;;;;;;;;;;;19.33;66.53;99443.13;4403819;32;35080;-75
2021/08/02 04:51:42;;;;;;;;;;;;;;;19.43;66.15;99448.94;4403904;32;35970;-75
2021/08/02 04:54:10;;;;;;;;;;;;;;;19.55;65.93;99449.97;4416110;32;33546;-76
2021/08/02 04:56:38;;;;;;;;;;;;;;;19.60;65.65;99456.38;4429234;32;33956;-74
2021/08/02 04:59:05;;;;;;;;;;;;;;;19.69;65.60;99452.44;4430706;32;34974;-74
2021/08/02 05:04:38;;;;;;;;;;;;;;;19.86;64.66;99447.41;4441730;32;20184;-73
2021/08/02 05:07:06;;;;;;;;;;;;;;;19.80;65.29;99454.47;4416612;32;34563;-74
2021/08/02 05:09:33;;;;;;;;;;;;;;;20.02;64.25;99455.06;4405123;32;785370;-73
2021/08/02 05:12:01;;;;;;;;;;;;;;;20.03;64.37;99467.50;4415746;32;34455;-74
2021/08/02 05:14:30;;;;;;;;;;;;;;;19.72;65.03;99467.37;4415711;32;32463;-75
2021/08/02 05:16:57;;;;;;;;;;;;;;;19.79;65.18;99469.03;4443717;32;34709;-74
2021/08/02 05:19:25;;;;;;;;;;;;;;;19.95;64.50;99465.88;4444391;32;35484;-84
2021/08/02 05:21:56;;;;;;;;;;;;;;;19.88;64.47;99467.75;4389536;32;34348;-76
2021/08/02 05:24:23;;;;;;;;;;;;;;;20.26;63.33;99460.59;4442127;32;33430;-76
2021/08/02 05:26:52;;;;;;;;;;;;;;;20.08;64.04;99465.84;4415607;32;34003;-76
2021/08/02 05:29:20;;;;;;;;;;;;;;;20.40;63.24;99466.78;4413308;32;34841;-77
2021/08/02 05:31:48;;;;;;;;;;;;;;;20.34;63.69;99457.66;4414713;32;34364;-76
2021/08/02 05:34:15;;;;;;;;;;;;;;;20.39;63.13;99467.81;4427522;32;32488;-75
2021/08/02 05:36:43;;;;;;;;;;;;;;;20.45;63.22;99466.97;4416816;32;34464;-76
2021/08/02 05:39:11;;;;;;;;;;;;;;;20.61;61.38;99460.00;4416892;32;36471;-76
2021/08/02 05:41:38;;;;;;;;;;;;;;;20.52;62.29;99465.91;4429469;32;35349;-76
2021/08/02 05:44:05;;;;;;;;;;;;;;;20.20;63.03;99472.25;4416566;32;33943;-75
2021/08/02 05:46:33;;;;;;;;;;;;;;;20.24;62.77;99476.19;4429687;32;33642;-75
2021/08/02 05:49:00;;;;;;;;;;;;;;;20.18;63.37;99476.22;4417477;32;35390;-74
2021/08/02 05:51:28;;;;;;;;;;;;;;;20.13;64.32;99468.75;4429780;32;34188;-75
2021/08/02 05:53:56;;;;;;;;;;;;;;;20.24;63.14;99480.75;4443488;32;33815;-76
2021/08/02 05:56:24;;;;;;;;;;;;;;;20.53;62.52;99476.47;4444544;32;34889;-75
2021/08/02 05:58:52;;;;;;;;;;;;;;;20.55;62.51;99484.38;4418000;32;35753;-75
2021/08/02 06:01:19;;;;;;;;;;;;;;;21.00;61.73;99475.22;4418366;32;34622;-75
2021/08/02 06:03:48;;;;;;;;;;;;;;;21.10;60.25;99479.09;4430299;32;33267;-76
2021/08/02 06:06:16;;;;;;;;;;;;;;;21.08;60.51;99478.47;4444870;32;34854;-75
2021/08/02 06:08:44;;;;;;;;;;;;;;;20.98;60.22;99482.72;4418121;32;35931;-75
2021/08/02 06:11:12;;;;;;;;;;;;;;;21.15;60.15;99481.97;4417694;32;35029;-76
2021/08/02 06:13:40;;;;;;;;;;;;;;;20.86;61.26;99481.72;4430947;32;33986;-75
2021/08/02 06:16:07;;;;;;;;;;;;;;;21.15;60.62;99481.16;4430048;32;34431;-76
2021/08/02 06:18:36;;;;;;;;;;;;;;;21.37;60.03;99490.53;4430319;32;35738;-75
2021/08/02 06:21:03;;;;;;;;;;;;;;;21.29;59.40;99483.53;4431432;32;34164;-76
2021/08/02 06:23:31;;;;;;;;;;;;;;;21.58;59.11;99482.03;4417017;32;33988;-75
2021/08/02 06:26:02;;;;;;;;;;;;;;;21.54;58.38;99497.06;4394284;32;34752;-76
2021/08/02 06:28:29;;;;;;;;;;;;;;;21.60;58.57;99504.28;4430258;32;35125;-74
2021/08/02 06:31:00;;;;;;;;;;;;;;;21.50;57.95;99504.81;4446839;32;34198;-74
2021/08/02 06:33:29;;;;;;;;;;;;;;;21.71;58.39;99506.34;4417909;32;33744;-74
2021/08/02 06:35:56;;;;;;;;;;;;;;;21.75;57.83;99513.78;4444863;32;33889;-73
2021/08/02 06:38:31;;;;;;;;;;;;;;;21.97;57.16;99519.59;4418261;32;35132;-76
2021/08/02 06:40:59;;;;;;;;;;;;;;;22.19;56.04;99531.69;4418598;32;34318;-76
2021/08/02 06:43:27;;;;;;;;;;;;;;;22.18;55.16;99511.88;4431630;32;32818;-76
2021/08/02 06:45:55;;;;;;;;;;;;;;;22.30;55.75;99525.50;4418192;32;35791;-74
2021/08/02 06:48:23;;;;;;;;;;;;;;;22.57;53.74;99522.28;4430504;32;36397;-75
2021/08/02 06:50:50;;;;;;;;;;;;;;;22.28;55.04;99530.34;4417455;32;36240;-76
2021/08/02 06:53:18;;;;;;;;;;;;;;;22.42;55.54;99530.00;4444198;32;33352;-75
2021/08/02 06:55:47;;;;;;;;;;;;;;;22.46;55.47;99535.78;4428605;32;34456;-76
2021/08/02 06:58:16;;;;;;;;;;;;;;;22.65;55.74;99543.66;4426731;32;35568;-73
2021/08/02 07:00:44;;;;;;;;;;;;;;;22.40;54.25;99539.38;4443298;32;34870;-74
2021/08/02 07:03:12;;;;;;;;;;;;;;;22.30;55.62;99552.63;4405431;32;31974;-75
2021/08/02 07:05:41;;;;;;;;;;;;;;;22.46;55.44;99554.78;4416958;32;35520;-77
2021/08/02 07:08:09;;;;;;;;;;;;;;;22.47;55.01;99549.09;4424067;32;35517;-77
2021/08/02 07:10:37;;;;;;;;;;;;;;;22.02;55.72;99553.09;4425121;32;34133;-74
2021/08/02 07:13:19;;;;;;;;;;;;;;;22.20;54.84;99544.19;4418010;32;34055;-80
2021/08/02 07:15:47;;;;;;;;;;;;;;;22.32;55.61;99540.50;4430141;32;32777;-74
2021/08/02 07:18:15;;;;;;;;;;;;;;;22.26;55.08;99540.53;4430143;32;34350;-78
2021/08/02 07:20:48;;;;;;;;;;;;;;;22.09;55.22;99539.50;4416784;32;35771;-75
2021/08/02 07:23:16;;;;;;;;;;;;;;;22.43;54.67;99536.22;4416531;32;32788;-75
2021/08/02 07:25:44;;;;;;;;;;;;;;;22.49;54.39;99532.62;4429836;32;34468;-74
2021/08/02 07:28:11;;;;;;;;;;;;;;;22.56;54.42;99531.47;4428899;32;36298;-75
2021/08/02 07:30:39;;;;;;;;;;;;;;;22.87;53.86;99525.88;4428340;32;33518;-79
2021/08/02 07:33:07;;;;;;;;;;;;;;;22.69;53.78;99531.34;4443115;32;32910;-75
2021/08/02 07:35:34;;;;;;;;;;;;;;;22.60;53.31;99535.41;4429106;32;33602;-75
2021/08/02 07:38:02;;;;;;;;;;;;;;;22.57;53.91;99530.41;4428916;32;35382;-75
2021/08/02 07:40:29;;;;;;;;;;;;;;;23.01;52.06;99527.34;4428068;32;35347;-75
2021/08/02 07:42:57;;;;;;;;;;;;;;;22.99;52.58;99534.03;4430147;32;33462;-75
2021/08/02 07:45:24;;;;;;;;;;;;;;;23.07;53.54;99533.72;4430686;32;34289;-75
2021/08/02 07:47:52;;;;;;;;;;;;;;;23.28;52.83;99536.78;4430013;32;36572;-75
2021/08/02 07:50:19;;;;;;;;;;;;;;;23.26;52.22;99536.19;4417343;32;36629;-75
2021/08/02 07:52:47;;;;;;;;;;;;;;;23.48;52.71;99531.88;4430490;32;33871;-74
2021/08/02 07:55:14;;;;;;;;;;;;;;;23.04;52.05;99539.62;4444149;32;35264;-76
2021/08/02 07:57:41;;;;;;;;;;;;;;;23.17;52.22;99540.31;4417671;32;37142;-75
2021/08/02 08:00:11;;;;;;;;;;;;;;;23.59;52.40;99539.22;4417148;32;34836;-75
2021/08/02 08:02:38;;;;;;;;;;;;;;;23.51;52.07;99544.16;4430913;32;33742;-75
2021/08/02 08:05:07;;;;;;;;;;;;;;;23.61;51.46;99555.28;4430282;32;35432;-75
2021/08/02 08:07:41;;;;;;;;;;;;;;;23.58;51.46;99550.34;4444495;32;34674;-75
2021/08/02 08:10:10;;;;;;;;;;;;;;;23.91;50.67;99555.00;4430279;32;34341;-78
2021/08/02 08:16:01;;;;;;;;;;;;;;;23.88;49.46;99571.78;4299475;26;35413;-77
2021/08/02 08:18:30;;;;;;;;;;;;;;;23.96;50.81;99562.44;4458745;32;35964;-76
2021/08/02 08:21:00;;;;;;;;;;;;;;;24.21;52.77;99554.88;4458911;32;35006;-76
2021/08/02 08:23:29;;;;;;;;;;;;;;;24.42;51.64;99571.44;4445510;32;32736;-75
2021/08/02 08:26:01;;;;;;;;;;;;;;;24.61;50.59;99570.25;4459906;32;33824;-77
2021/08/02 08:28:28;;;;;;;;;;;;;;;24.45;49.15;99564.69;4445824;32;35142;-77
2021/08/02 08:30:56;;;;;;;;;;;;;;;24.75;48.16;99565.38;4445913;32;34877;-76
2021/08/02 08:33:26;;;;;;;;;;;;;;;24.58;48.08;99573.47;4446270;32;33183;-82
2021/08/02 08:35:55;;;;;;;;;;;;;;;24.62;45.66;99569.19;4446264;32;34139;-77
2021/08/02 08:38:24;;;;;;;;;;;;;;;24.37;48.63;99570.50;4459826;32;35937;-75
2021/08/02 08:40:53;;;;;;;;;;;;;;;23.95;48.05;99583.38;4445821;32;34943;-75
2021/08/02 08:43:21;;;;;;;;;;;;;;;24.29;48.11;99573.56;4445752;32;33719;-77
2021/08/02 08:45:48;;;;;;;;;;;;;;;24.33;48.32;99561.13;4432993;32;35377;-77
2021/08/02 08:48:16;;;;;;;;;;;;;;;24.34;45.90;99566.34;4433019;32;35536;-77
2021/08/02 08:50:43;;;;;;;;;;;;;;;24.44;48.11;99568.44;4432384;32;35524;-78
2021/08/02 08:53:11;;;;;;;;;;;;;;;24.48;48.50;99567.72;4432200;32;34825;-77
2021/08/02 08:55:43;;;;;;;;;;;;;;;24.34;48.03;99571.78;4432624;32;33545;-76
2021/08/02 08:58:11;;;;;;;;;;;;;;;24.94;46.74;99566.84;4433139;32;36261;-77
2021/08/02 09:00:39;;;;;;;;;;;;;;;25.06;47.55;99576.63;4445162;32;36446;-78
2021/08/02 09:03:10;;;;;;;;;;;;;;;25.06;47.61;99583.97;4445676;32;33126;-78
2021/08/02 09:05:38;;;;;;;;;;;;;;;25.21;47.25;99578.84;4444854;32;33925;-77
2021/08/02 09:08:06;;;;;;;;;;;;;;;25.45;47.47;99589.41;4432248;32;36045;-79
2021/08/02 09:10:34;;;;;;;;;;;;;;;25.36;44.81;99590.84;4432429;32;36123;-77
2021/08/02 09:13:03;;;;;;;;;;;;;;;25.59;45.24;99590.72;4433140;32;33704;-77
2021/08/02 09:15:30;;;;;;;;;;;;;;;25.48;45.45;99591.63;4459387;32;34177;-79
2021/08/02 09:17:58;;;;;;;;;;;;;;;25.20;47.32;99588.87;4444964;32;36673;-76
2021/08/02 09:20:26;;;;;;;;;;;;;;;25.08;46.51;99596.25;4445832;32;34080;-79
2021/08/02 09:22:54;;;;;;;;;;;;;;;25.34;46.01;99595.72;4443896;32;33640;-76
2021/08/02 09:25:22;;;;;;;;;;;;;;;25.56;46.27;99590.41;4432429;32;34343;-77
2021/08/02 09:27:50;;;;;;;;;;;;;;;25.34;46.83;99593.00;4445230;32;35125;-75
2021/08/02 09:30:25;;;;;;;;;;;;;;;25.48;45.42;99597.06;4445763;32;34794;-78
2021/08/02 09:32:54;;;;;;;;;;;;;;;25.65;45.04;99608.81;4438164;32;34859;-78
2021/08/02 09:35:29;;;;;;;;;;;;;;;25.58;45.97;99601.88;4447118;32;33771;-77
2021/08/02 09:37:58;;;;;;;;;;;;;;;25.75;45.00;99608.19;4460997;32;35202;-79
2021/08/02 09:40:25;;;;;;;;;;;;;;;25.33;44.72;99609.56;4447317;32;34506;-77
2021/08/02 09:42:56;;;;;;;;;;;;;;;25.55;45.79;99619.53;4434208;32;32831;-78
2021/08/02 09:45:48;;;;;;;;;;;;;;;25.68;44.39;99619.22;4438503;32;34628;-79
2021/08/02 09:48:17;;;;;;;;;;;;;;;25.95;44.54;99614.81;4447021;32;34608;-78
2021/08/02 09:50:46;;;;;;;;;;;;;;;25.65;44.86;99614.28;4434215;32;33399;-78
2021/08/02 09:53:15;;;;;;;;;;;;;;;25.82;44.56;99614.28;4446884;32;33265;-79
2021/08/02 09:55:45;;;;;;;;;;;;;;;25.95;45.80;99609.38;4461106;32;34263;-78
2021/08/02 09:58:20;;;;;;;;;;;;;;;25.87;44.46;99609.78;4434419;32;35837;-77
2021/08/02 10:00:48;;;;;;;;;;;;;;;26.28;45.49;99606.66;4447424;32;35390;-79
2021/08/02 10:03:18;;;;;;;;;;;;;;;26.36;42.93;99602.66;4447115;32;33338;-78
2021/08/02 10:05:49;;;;;;;;;;;;;;;26.56;43.86;99612.00;4446654;32;33525;-79
2021/08/02 10:08:31;;;;;;;;;;;;;;;26.51;42.57;99602.94;4448690;32;34810;-78
2021/08/02 10:10:58;;;;;;;;;;;;;;;26.41;43.47;99600.84;4433675;32;35189;-78
2021/08/02 10:13:26;;;;;;;;;;;;;;;26.44;43.86;99604.97;4447066;32;33535;-77
2021/08/02 10:15:55;;;;;;;;;;;;;;;26.71;43.20;99604.00;4446820;32;33971;-80
2021/08/02 10:18:26;;;;;;;;;;;;;;;26.95;42.41;99599.97;4446843;32;35789;-79
2021/08/02 10:21:09;;;;;;;;;;;;;;;26.76;42.29;99595.91;4433549;32;34769;-79
2021/08/02 10:23:38;;;;;;;;;;;;;;;26.71;43.80;99595.81;4446690;32;32900;-78
2021/08/02 10:26:24;;;;;;;;;;;;;;;27.28;41.17;99589.75;4446512;32;34215;-79
2021/08/02 10:28:56;;;;;;;;;;;;;;;27.10;40.69;99591.97;4433833;32;35181;-79
2021/08/02 10:31:26;;;;;;;;;;;;;;;27.03;40.43;99586.69;4447065;32;34813;-78
2021/08/02 10:34:12;;;;;;;;;;;;;;;27.67;40.66;99587.69;4461116;32;34074;-79
2021/08/02 10:36:39;;;;;;;;;;;;;;;27.61;41.25;99586.84;4433458;32;34675;-79
2021/08/02 10:39:06;;;;;;;;;;;;;;;27.17;41.90;99596.19;4460703;32;35421;-78
2021/08/02 10:41:34;;;;;;;;;;;;;;;27.30;41.55;99593.03;4445326;32;35288;-79
2021/08/02 10:44:12;;;;;;;;;;;;;;;27.40;42.23;99597.81;4446770;32;32904;-79
2021/08/02 10:46:39;;;;;;;;;;;;;;;27.49;40.19;99590.81;4446162;32;34697;-79
2021/08/02 10:49:07;;;;;;;;;;;;;;;27.51;40.94;99596.81;4433370;32;35181;-78
2021/08/02 10:51:48;;;;;;;;;;;;;;;27.77;40.10;99598.75;4446235;32;33787;-81
2021/08/02 10:54:16;;;;;;;;;;;;;;;28.26;39.08;99601.09;4461314;32;32746;-79
2021/08/02 10:56:50;;;;;;;;;;;;;;;28.90;36.80;99594.34;4460840;32;34375;-79
2021/08/02 10:59:19;;;;;;;;;;;;;;;29.86;35.00;99604.56;4434347;32;35035;-78
2021/08/02 11:01:47;;;;;;;;;;;;;;;29.87;33.87;99606.19;4434233;32;34626;-76
2021/08/02 11:04:17;;;;;;;;;;;;;;;30.03;33.04;99601.53;4447060;32;33842;-78
2021/08/02 11:06:46;;;;;;;;;;;;;;;31.12;31.61;99581.28;4447010;32;34415;-78
2021/08/02 11:09:14;;;;;;;;;;;;;;;30.41;33.34;99590.84;4433824;32;37130;-79
2021/08/02 11:11:43;;;;;;;;;;;;;;;30.23;33.88;99588.66;4445551;32;33891;-77
2021/08/02 11:14:12;;;;;;;;;;;;;;;30.48;33.28;99592.19;4446665;32;33551;-77
2021/08/02 11:16:50;;;;;;;;;;;;;;;30.06;33.28;99606.50;4446781;32;33656;-79
2021/08/02 11:19:20;;;;;;;;;;;;;;;30.61;34.25;99599.06;4446783;32;35452;-77
2021/08/02 11:21:48;;;;;;;;;;;;;;;30.87;31.98;99589.66;4460618;32;34882;-81
2021/08/02 11:24:16;;;;;;;;;;;;;;;30.74;33.74;99601.22;4433614;32;31702;-79
2021/08/02 11:26:53;;;;;;;;;;;;;;;30.84;32.11;99602.00;4421781;32;34605;-81
2021/08/02 11:29:21;;;;;;;;;;;;;;;31.18;31.42;99603.00;4445679;32;35678;-79
2021/08/02 11:31:53;;;;;;;;;;;;;;;30.96;31.40;99605.25;4434005;32;33930;-80
2021/08/02 11:34:20;;;;;;;;;;;;;;;30.76;32.70;99605.31;4433099;32;34422;-78
2021/08/02 11:36:59;;;;;;;;;;;;;;;30.47;33.07;99613.63;4460501;32;33325;-79
2021/08/02 11:39:26;;;;;;;;;;;;;;;31.06;32.39;99616.22;4433318;32;36024;-79
2021/08/02 11:41:58;;;;;;;;;;;;;;;31.12;29.74;99604.09;4459881;32;34693;-79
2021/08/02 11:44:26;;;;;;;;;;;;;;;31.11;31.06;99609.88;4459949;32;33599;-79
2021/08/02 11:46:54;;;;;;;;;;;;;;;31.32;31.59;99606.78;4446517;32;33563;-77
2021/08/02 11:49:22;;;;;;;;;;;;;;;31.38;31.17;99611.16;4446006;32;35771;-79
2021/08/02 11:51:49;;;;;;;;;;;;;;;31.80;31.47;99610.66;4446356;32;33876;-80
2021/08/02 11:54:19;;;;;;;;;;;;;;;32.02;30.66;99616.53;4445831;32;32900;-78
2021/08/02 11:56:47;;;;;;;;;;;;;;;31.14;31.54;99623.91;4433160;32;35472;-78
2021/08/02 11:59:21;;;;;;;;;;;;;;;30.88;32.20;99622.31;4460575;32;35900;-78
2021/08/02 12:01:49;;;;;;;;;;;;;;;30.20;31.35;99619.37;4433302;32;36014;-79
2021/08/02 12:04:18;;;;;;;;;;;;;;;30.80;32.52;99633.06;4445877;32;34116;-78
2021/08/02 12:06:58;;;;;;;;;;;;;;;31.46;31.23;99626.22;4433024;32;36021;-83
2021/08/02 12:09:33;;;;;;;;;;;;;;;30.86;30.94;99627.28;4446443;32;34517;-78
2021/08/02 12:12:02;;;;;;;;;;;;;;;30.95;30.08;99624.78;4446011;32;35815;-80
2021/08/02 12:14:31;;;;;;;;;;;;;;;31.01;31.32;99619.00;4420394;32;33379;-78
2021/08/02 12:17:08;;;;;;;;;;;;;;;30.37;34.41;99621.88;4433113;32;34600;-78
2021/08/02 12:19:43;;;;;;;;;;;;;;;30.83;32.74;99621.50;4433838;32;34944;-78
2021/08/02 12:22:11;;;;;;;;;;;;;;;31.19;32.58;99632.16;4460401;32;35363;-79
2021/08/02 12:24:48;;;;;;;;;;;;;;;31.24;32.27;99626.59;4460238;32;32267;-78
2021/08/02 12:27:16;;;;;;;;;;;;;;;30.78;31.80;99629.78;4446102;32;35349;-79
2021/08/02 12:29:43;;;;;;;;;;;;;;;30.96;32.25;99619.00;4433426;32;36008;-78
2021/08/02 12:32:11;;;;;;;;;;;;;;;31.48;30.62;99613.84;4446446;32;34840;-78
2021/08/02 12:34:38;;;;;;;;;;;;;;;30.72;31.76;99617.16;4446254;32;33046;-79
2021/08/02 12:37:06;;;;;;;;;;;;;;;30.48;33.20;99616.06;4432754;32;35642;-79
2021/08/02 12:39:37;;;;;;;;;;;;;;;30.74;32.79;99623.19;4446595;32;34595;-78
2021/08/02 12:42:04;;;;;;;;;;;;;;;31.43;32.57;99618.56;4445835;32;35128;-79
2021/08/02 12:44:32;;;;;;;;;;;;;;;31.77;30.32;99620.28;4445931;32;32817;-79
2021/08/02 12:47:00;;;;;;;;;;;;;;;32.04;29.17;99614.28;4459947;32;33708;-78
2021/08/02 12:49:29;;;;;;;;;;;;;;;32.16;31.47;99609.25;4433562;32;35551;-78
2021/08/02 12:51:58;;;;;;;;;;;;;;;32.28;30.14;99613.28;4460053;32;34580;-79
2021/08/02 12:54:25;;;;;;;;;;;;;;;32.33;31.26;99607.75;4460114;32;33870;-79
2021/08/02 12:56:53;;;;;;;;;;;;;;;32.01;30.14;99612.94;4445591;32;34162;-76
2021/08/02 12:59:20;;;;;;;;;;;;;;;32.59;31.50;99616.56;4445936;32;35387;-78
2021/08/02 13:01:48;;;;;;;;;;;;;;;31.98;28.75;99604.47;4445515;32;33935;-78
2021/08/02 13:04:16;;;;;;;;;;;;;;;31.89;29.95;99608.94;4445336;32;33910;-78
2021/08/02 13:06:44;;;;;;;;;;;;;;;32.15;31.32;99600.16;4445011;32;34128;-79